Terminal Aerodrome Forecast
Issued by NWS

Home | Current Version | Previous Version | Text Only | Print | Product List | Glossary On
Versions: 1 2 3 4 5 6 7 8 9 10 11 12 13 14
000
FTUS42 KMLB 180800 AAA
TAFFPR
TAF AMD
KFPR 180825Z 1808/1906 29004KT 3SM BR BKN003
     FM181300 32004KT P6SM FEW030
     FM181600 05008KT P6SM VCSH SCT030 BKN050
     FM181900 09010KT P6SM SCT035 SCT080=

USA.gov is the U.S. government's official web portal to all federal, state and local government web resources and services.